Time;durP1;ratioP1;P1;durP2;ratioP2;P2;SDS_P1;SDS_P2;PMS_P1;PMS_P2;Temp;Humidity;BMP_temperature;BMP_pressure;BME280_temperature;BME280_humidity;BME280_pressure;Samples;Min_cycle;Max_cycle;Signal;HPM_P1;HPM_P2
2023/11/22 00:01:12;;;;;;;2.45;1.00;;;9.10;99.90;;;;;;5074831;28;20789;-53
2023/11/22 00:03:40;;;;;;;2.35;1.20;;;9.10;99.90;;;;;;5075135;28;20431;-50
2023/11/22 00:06:08;;;;;;;2.10;1.10;;;9.00;99.90;;;;;;5074782;28;20485;-52
2023/11/22 00:08:35;;;;;;;2.10;1.08;;;9.10;99.90;;;;;;5075016;28;20489;-50
2023/11/22 00:11:03;;;;;;;1.95;0.70;;;9.00;99.90;;;;;;5075160;28;20424;-50
2023/11/22 00:13:31;;;;;;;1.00;0.60;;;8.80;99.90;;;;;;5075790;28;20431;-52
2023/11/22 00:15:59;;;;;;;0.90;0.50;;;8.60;99.90;;;;;;5074383;28;20427;-50
2023/11/22 00:18:27;;;;;;;1.30;0.60;;;8.30;99.90;;;;;;5074965;28;20423;-51
2023/11/22 00:20:54;;;;;;;0.73;0.50;;;8.20;99.90;;;;;;5073903;28;20463;-53
2023/11/22 00:23:27;;;;;;;1.20;0.50;;;8.00;99.90;;;;;;5073292;28;20415;-52
2023/11/22 00:25:54;;;;;;;0.90;0.50;;;8.00;99.90;;;;;;5073689;28;20434;-48
2023/11/22 00:28:21;;;;;;;0.90;0.50;;;7.90;99.90;;;;;;5073397;28;20424;-53
2023/11/22 00:30:48;;;;;;;0.70;0.40;;;7.70;99.90;;;;;;5073070;28;20431;-53
2023/11/22 00:33:15;;;;;;;0.90;0.60;;;7.50;99.90;;;;;;5072582;28;20515;-50
2023/11/22 00:35:42;;;;;;;0.90;0.50;;;7.40;99.90;;;;;;5073236;28;20922;-51
2023/11/22 00:38:09;;;;;;;1.50;0.50;;;7.40;99.90;;;;;;5073393;28;20419;-51
2023/11/22 00:40:37;;;;;;;1.30;0.50;;;7.40;99.90;;;;;;5073821;28;20432;-51
2023/11/22 00:43:04;;;;;;;0.90;0.52;;;7.50;99.90;;;;;;5074505;28;20866;-50
2023/11/22 00:45:31;;;;;;;0.90;0.50;;;7.50;99.90;;;;;;5074013;28;20846;-52
2023/11/22 00:47:58;;;;;;;0.80;0.50;;;7.60;99.90;;;;;;5074744;28;20481;-50
2023/11/22 00:50:25;;;;;;;1.10;0.60;;;7.50;99.90;;;;;;5073333;28;20419;-47
2023/11/22 00:52:53;;;;;;;1.10;0.60;;;7.50;99.90;;;;;;5074022;28;20522;-51
2023/11/22 00:55:20;;;;;;;1.05;0.60;;;7.50;99.90;;;;;;5074656;28;20901;-52
2023/11/22 00:57:49;;;;;;;1.08;0.60;;;7.50;99.90;;;;;;5074537;28;20453;-52
2023/11/22 01:00:16;;;;;;;1.10;0.60;;;7.40;99.90;;;;;;5074756;28;20849;-54
2023/11/22 01:02:44;;;;;;;1.20;0.60;;;7.50;99.90;;;;;;5072964;28;20446;-52
2023/11/22 01:05:12;;;;;;;1.20;0.70;;;7.50;99.90;;;;;;5075122;28;20434;-48
2023/11/22 01:07:39;;;;;;;1.30;0.70;;;7.50;99.90;;;;;;5073989;28;20427;-52
2023/11/22 01:10:07;;;;;;;1.20;0.70;;;7.40;99.90;;;;;;5073722;28;20719;-54
2023/11/22 01:12:34;;;;;;;1.60;0.60;;;7.40;99.90;;;;;;5073912;28;20936;-49
2023/11/22 01:15:03;;;;;;;1.30;0.80;;;7.50;99.90;;;;;;5073692;28;20528;-47
2023/11/22 01:17:30;;;;;;;1.20;0.70;;;7.40;99.90;;;;;;5074236;28;20506;-50
2023/11/22 01:19:58;;;;;;;1.55;0.75;;;7.30;99.90;;;;;;5072630;28;20427;-51
2023/11/22 01:22:25;;;;;;;1.40;0.70;;;7.20;99.90;;;;;;5073941;28;20514;-49
2023/11/22 01:24:52;;;;;;;1.40;0.70;;;7.10;99.90;;;;;;5072925;28;20469;-53
2023/11/22 01:27:19;;;;;;;1.20;0.60;;;7.10;99.90;;;;;;5073213;28;20481;-50
2023/11/22 01:29:46;;;;;;;1.13;0.60;;;7.00;99.90;;;;;;5072926;28;20899;-53
2023/11/22 01:32:16;;;;;;;0.90;0.60;;;6.80;99.90;;;;;;5073275;28;20432;-54
2023/11/22 01:34:44;;;;;;;2.45;0.60;;;6.90;99.90;;;;;;5073199;28;20427;-51
2023/11/22 01:37:11;;;;;;;1.20;0.70;;;6.80;99.90;;;;;;5073786;28;20431;-51
2023/11/22 01:39:41;;;;;;;1.40;0.70;;;6.90;99.90;;;;;;5072355;28;20730;-53
2023/11/22 01:42:09;;;;;;;0.98;0.60;;;7.00;99.90;;;;;;5073199;28;20488;-48
2023/11/22 01:44:36;;;;;;;1.00;0.70;;;7.00;99.90;;;;;;5073351;28;20434;-52
2023/11/22 01:47:03;;;;;;;1.08;0.60;;;7.00;99.90;;;;;;5072964;28;20412;-48
2023/11/22 01:49:32;;;;;;;1.08;0.70;;;7.00;99.90;;;;;;5072212;28;20821;-48
2023/11/22 01:51:59;;;;;;;1.50;0.63;;;7.00;99.90;;;;;;5072787;28;20489;-52
2023/11/22 01:54:26;;;;;;;1.70;0.65;;;6.90;99.90;;;;;;5072683;28;20423;-50
2023/11/22 01:56:54;;;;;;;1.02;0.60;;;7.00;99.90;;;;;;5073345;28;20806;-50
2023/11/22 01:59:22;;;;;;;1.00;0.60;;;7.00;99.90;;;;;;5073161;28;20423;-52
2023/11/22 02:01:50;;;;;;;1.10;0.60;;;7.00;99.90;;;;;;5073280;28;20423;-53
2023/11/22 02:04:17;;;;;;;1.05;0.60;;;7.00;99.90;;;;;;5072453;28;20518;-53
2023/11/22 02:06:46;;;;;;;1.00;0.50;;;6.80;99.90;;;;;;5070714;28;20866;-53
2023/11/22 02:09:15;;;;;;;1.80;0.70;;;6.70;99.90;;;;;;5070572;28;20482;-54
2023/11/22 02:11:45;;;;;;;1.20;0.60;;;6.70;99.90;;;;;;5071446;28;20458;-53
2023/11/22 02:14:12;;;;;;;1.00;0.60;;;6.70;99.90;;;;;;5070825;28;20731;-50
2023/11/22 02:16:40;;;;;;;1.13;0.60;;;6.80;99.90;;;;;;5072413;28;20781;-52
2023/11/22 02:19:14;;;;;;;1.00;0.60;;;6.80;99.90;;;;;;5072201;28;20493;-50
2023/11/22 02:21:41;;;;;;;1.05;0.60;;;6.80;99.90;;;;;;5071907;28;20501;-53
2023/11/22 02:24:11;;;;;;;0.90;0.60;;;6.90;99.90;;;;;;5072524;28;20854;-54
2023/11/22 02:26:39;;;;;;;1.17;0.60;;;6.90;99.90;;;;;;5072798;28;20431;-54
2023/11/22 02:29:06;;;;;;;1.50;0.70;;;6.90;99.90;;;;;;5072198;28;20718;-50
2023/11/22 02:31:34;;;;;;;1.17;0.60;;;6.70;99.90;;;;;;5072751;28;20842;-52
2023/11/22 02:34:01;;;;;;;1.08;0.60;;;6.80;99.90;;;;;;5073503;28;20439;-52
2023/11/22 02:36:28;;;;;;;0.90;0.60;;;6.70;99.90;;;;;;5072725;28;20427;-53
2023/11/22 02:38:55;;;;;;;0.90;0.50;;;6.80;99.90;;;;;;5072250;28;20431;-50
2023/11/22 02:41:25;;;;;;;1.13;0.50;;;6.70;99.90;;;;;;5072474;28;20527;-50
2023/11/22 02:43:51;;;;;;;1.08;0.57;;;6.60;99.90;;;;;;5073271;28;20439;-50
2023/11/22 02:46:18;;;;;;;1.48;0.60;;;6.60;99.90;;;;;;5072702;28;20789;-49
2023/11/22 02:48:45;;;;;;;0.80;0.50;;;6.60;99.90;;;;;;5072393;28;20775;-51
2023/11/22 02:51:13;;;;;;;1.00;0.60;;;6.50;99.90;;;;;;5072383;28;20431;-48
2023/11/22 02:53:43;;;;;;;1.00;0.60;;;6.40;99.90;;;;;;5072083;28;20434;-50
2023/11/22 02:56:10;;;;;;;1.00;0.60;;;6.40;99.90;;;;;;5073079;28;20439;-51
2023/11/22 02:58:38;;;;;;;1.13;0.60;;;6.40;99.90;;;;;;5075716;28;20838;-50
2023/11/22 03:01:07;;;;;;;0.95;0.60;;;6.40;99.90;;;;;;5076524;28;20431;-51
2023/11/22 03:03:34;;;;;;;1.10;0.60;;;6.40;99.90;;;;;;5077300;28;20835;-49
2023/11/22 03:06:01;;;;;;;1.10;0.60;;;6.30;99.90;;;;;;5076362;28;20497;-49
2023/11/22 03:08:28;;;;;;;0.90;0.60;;;6.30;99.90;;;;;;5076401;28;20423;-52
2023/11/22 03:10:56;;;;;;;1.05;0.60;;;6.30;99.90;;;;;;5075827;28;20799;-50
2023/11/22 03:13:23;;;;;;;1.10;0.75;;;6.20;99.90;;;;;;5075677;28;20431;-49
2023/11/22 03:15:51;;;;;;;1.70;0.70;;;6.20;99.90;;;;;;5076919;28;20823;-52
2023/11/22 03:18:18;;;;;;;1.20;0.70;;;6.20;99.90;;;;;;5076490;28;20839;-52
2023/11/22 03:20:46;;;;;;;1.55;0.60;;;6.30;99.90;;;;;;5076070;28;20435;-51
2023/11/22 03:23:16;;;;;;;1.50;0.70;;;6.20;99.90;;;;;;5075689;28;20486;-47
2023/11/22 03:25:43;;;;;;;1.40;0.70;;;6.10;99.90;;;;;;5075392;28;20699;-49
2023/11/22 03:28:10;;;;;;;0.90;0.50;;;5.90;99.90;;;;;;5076098;28;20431;-51
2023/11/22 03:30:39;;;;;;;1.20;0.70;;;5.80;99.90;;;;;;5076369;28;20846;-48
2023/11/22 03:33:07;;;;;;;1.58;0.60;;;5.80;99.90;;;;;;5076599;28;20431;-48
2023/11/22 03:35:34;;;;;;;1.00;0.60;;;5.80;99.90;;;;;;5075780;28;20875;-50
2023/11/22 03:38:01;;;;;;;1.60;0.60;;;5.80;99.90;;;;;;5075192;28;20830;-48
2023/11/22 03:40:28;;;;;;;1.40;0.70;;;5.50;99.90;;;;;;5076039;28;20424;-48
2023/11/22 03:42:55;;;;;;;1.08;0.60;;;5.60;99.90;;;;;;5075441;28;20865;-46
2023/11/22 03:45:22;;;;;;;1.40;0.70;;;5.80;99.90;;;;;;5074970;28;20439;-49
2023/11/22 03:47:49;;;;;;;1.13;0.70;;;5.70;99.90;;;;;;5076212;28;20484;-49
2023/11/22 03:50:18;;;;;;;1.20;0.70;;;5.60;99.90;;;;;;5075065;28;20445;-50
2023/11/22 03:52:45;;;;;;;2.30;0.63;;;5.60;99.90;;;;;;5075384;28;20696;-48
2023/11/22 03:55:12;;;;;;;1.27;0.65;;;5.70;99.90;;;;;;5075309;28;20424;-52
2023/11/22 03:57:41;;;;;;;0.90;0.60;;;5.80;99.90;;;;;;5076389;28;20496;-48
2023/11/22 04:00:09;;;;;;;2.30;0.80;;;5.80;99.90;;;;;;5074887;28;20419;-51
2023/11/22 04:02:36;;;;;;;1.70;0.70;;;5.70;99.90;;;;;;5075274;28;20793;-50
2023/11/22 04:05:03;;;;;;;1.38;0.70;;;5.80;99.90;;;;;;5075631;28;20424;-48
2023/11/22 04:07:32;;;;;;;1.50;0.80;;;5.80;99.90;;;;;;5073664;28;20419;-50
2023/11/22 04:09:59;;;;;;;1.88;0.70;;;5.80;99.90;;;;;;5075495;28;20510;-48
2023/11/22 04:12:26;;;;;;;1.10;0.73;;;5.90;99.90;;;;;;5075282;28;20424;-50
2023/11/22 04:14:53;;;;;;;1.40;0.80;;;5.80;99.90;;;;;;5092374;28;20436;-48
2023/11/22 04:17:20;;;;;;;1.40;0.70;;;5.80;99.90;;;;;;5095266;28;20421;-48
2023/11/22 04:19:47;;;;;;;1.90;0.80;;;5.80;99.90;;;;;;5095115;28;20829;-46
2023/11/22 04:22:14;;;;;;;1.70;0.80;;;5.80;99.90;;;;;;5095060;28;20433;-47
2023/11/22 04:24:42;;;;;;;1.40;0.80;;;5.80;99.90;;;;;;5096153;28;20421;-50
2023/11/22 04:27:09;;;;;;;1.40;0.80;;;5.80;99.90;;;;;;5095176;28;20487;-50
2023/11/22 04:29:36;;;;;;;1.80;0.80;;;5.60;99.90;;;;;;5094990;28;20422;-50
2023/11/22 04:32:04;;;;;;;1.60;0.80;;;5.70;99.90;;;;;;5095033;28;20471;-51
2023/11/22 04:34:31;;;;;;;1.20;0.70;;;5.80;99.90;;;;;;5094752;28;20442;-49
2023/11/22 04:36:58;;;;;;;1.25;0.60;;;6.00;99.90;;;;;;5094980;28;20425;-48
2023/11/22 04:39:25;;;;;;;2.20;0.77;;;6.10;99.90;;;;;;5095758;28;20425;-48
2023/11/22 04:41:53;;;;;;;1.25;0.70;;;6.10;99.90;;;;;;5095604;28;20425;-51
2023/11/22 04:44:20;;;;;;;1.10;0.67;;;6.10;99.90;;;;;;5094897;28;20470;-48
2023/11/22 04:46:47;;;;;;;1.40;0.70;;;6.10;99.90;;;;;;5094166;28;20508;-51
2023/11/22 04:49:14;;;;;;;1.33;0.70;;;6.00;99.90;;;;;;5094736;28;20472;-50
2023/11/22 04:51:43;;;;;;;2.00;0.70;;;6.00;99.90;;;;;;5095254;28;20436;-52
2023/11/22 04:54:10;;;;;;;1.30;0.80;;;5.80;99.90;;;;;;5095553;28;20434;-53
2023/11/22 04:56:37;;;;;;;1.00;0.63;;;5.70;99.90;;;;;;5096059;28;20421;-48
2023/11/22 04:59:05;;;;;;;1.52;0.80;;;5.80;99.90;;;;;;5094953;28;20421;-49
2023/11/22 05:01:33;;;;;;;1.98;0.70;;;5.70;99.90;;;;;;5095463;28;20426;-47
2023/11/22 05:04:00;;;;;;;2.27;0.70;;;5.70;99.90;;;;;;5094640;28;20779;-46
2023/11/22 05:06:27;;;;;;;1.50;0.80;;;5.60;99.90;;;;;;5093968;28;20425;-47
2023/11/22 05:08:54;;;;;;;2.00;0.70;;;5.50;99.90;;;;;;5093391;28;20944;-49
2023/11/22 05:11:21;;;;;;;1.20;0.60;;;5.70;99.90;;;;;;5094229;28;20500;-51
2023/11/22 05:13:50;;;;;;;1.35;0.60;;;5.60;99.90;;;;;;5094937;28;20498;-51
2023/11/22 05:16:18;;;;;;;1.13;0.70;;;5.70;99.90;;;;;;5093539;28;20453;-52
2023/11/22 05:18:44;;;;;;;1.00;0.60;;;5.80;99.90;;;;;;5092733;28;20426;-53
2023/11/22 05:21:11;;;;;;;1.42;0.60;;;5.60;99.90;;;;;;5094120;28;20483;-52
2023/11/22 05:23:38;;;;;;;1.15;0.70;;;5.60;99.90;;;;;;5090667;28;20421;-54
2023/11/22 05:26:05;;;;;;;1.10;0.70;;;5.80;99.90;;;;;;5093845;28;20418;-52
2023/11/22 05:28:33;;;;;;;1.25;0.70;;;5.80;99.90;;;;;;5092095;28;20482;-53
2023/11/22 05:31:00;;;;;;;1.27;0.65;;;5.60;99.90;;;;;;5093712;28;20844;-52
2023/11/22 05:33:28;;;;;;;1.10;0.70;;;5.40;99.90;;;;;;5094241;28;20440;-52
2023/11/22 05:35:55;;;;;;;1.17;0.60;;;5.30;99.90;;;;;;5093245;28;20425;-51
2023/11/22 05:38:22;;;;;;;1.35;0.70;;;5.10;99.90;;;;;;5091590;28;20420;-53
2023/11/22 05:40:49;;;;;;;2.30;0.70;;;5.10;99.90;;;;;;5090876;28;21116;-51
2023/11/22 05:43:17;;;;;;;1.48;0.70;;;5.10;99.90;;;;;;5090434;28;20422;-52
2023/11/22 05:45:49;;;;;;;1.20;0.70;;;5.20;99.90;;;;;;5091723;28;20429;-48
2023/11/22 05:48:16;;;;;;;1.20;0.70;;;5.20;99.90;;;;;;5091618;28;20426;-49
2023/11/22 05:50:45;;;;;;;1.50;0.60;;;5.40;99.90;;;;;;5091106;28;20425;-54
2023/11/22 05:53:12;;;;;;;2.17;0.70;;;5.50;99.90;;;;;;5092284;28;20802;-52
2023/11/22 05:55:39;;;;;;;1.40;0.70;;;5.40;99.90;;;;;;5090759;28;20421;-54
2023/11/22 05:58:06;;;;;;;1.45;0.65;;;5.40;99.90;;;;;;5087379;28;20461;-52
2023/11/22 06:00:33;;;;;;;1.58;0.60;;;5.50;99.90;;;;;;5091602;28;20906;-55
2023/11/22 06:03:00;;;;;;;1.38;0.60;;;5.60;99.90;;;;;;5090415;28;20653;-50
2023/11/22 06:05:27;;;;;;;1.45;0.70;;;5.50;99.90;;;;;;5091341;28;20405;-49
2023/11/22 06:07:56;;;;;;;1.00;0.60;;;5.60;99.90;;;;;;5091992;28;20428;-53
2023/11/22 06:10:24;;;;;;;1.10;0.60;;;5.40;99.90;;;;;;5090073;28;20417;-49
2023/11/22 06:12:50;;;;;;;1.10;0.60;;;5.50;99.90;;;;;;5091444;28;20425;-53
2023/11/22 06:15:18;;;;;;;1.10;0.60;;;5.70;99.90;;;;;;5090403;28;20464;-51
2023/11/22 06:17:45;;;;;;;0.90;0.50;;;6.00;99.90;;;;;;5089550;28;21101;-52
2023/11/22 06:20:13;;;;;;;1.80;0.60;;;6.00;99.90;;;;;;5091143;28;20771;-51
2023/11/22 06:22:42;;;;;;;1.10;0.60;;;6.20;99.90;;;;;;5091150;28;20483;-48
2023/11/22 06:25:11;;;;;;;1.60;0.60;;;6.10;99.90;;;;;;5090996;28;20421;-50
2023/11/22 06:27:38;;;;;;;1.55;0.60;;;5.80;99.90;;;;;;5092092;28;20796;-49
2023/11/22 06:30:07;;;;;;;1.20;0.50;;;5.70;99.90;;;;;;5092009;28;20833;-51
2023/11/22 06:32:34;;;;;;;1.70;0.60;;;5.90;99.90;;;;;;5095427;28;20436;-50
2023/11/22 06:35:01;;;;;;;1.15;0.63;;;5.90;99.90;;;;;;5095113;28;20426;-51
2023/11/22 06:37:28;;;;;;;1.10;0.60;;;6.20;99.90;;;;;;5095131;28;20737;-53
2023/11/22 06:39:57;;;;;;;0.90;0.50;;;6.20;99.90;;;;;;5095084;28;20740;-51
2023/11/22 06:42:26;;;;;;;1.10;0.60;;;6.30;99.90;;;;;;5095507;28;20422;-49
2023/11/22 06:44:57;;;;;;;1.00;0.52;;;6.50;99.90;;;;;;5094006;28;20440;-52
2023/11/22 06:47:24;;;;;;;1.10;0.60;;;6.10;99.90;;;;;;5095349;28;20426;-49
2023/11/22 06:49:51;;;;;;;0.90;0.60;;;5.90;99.90;;;;;;5095011;28;20418;-49
2023/11/22 06:52:18;;;;;;;0.85;0.50;;;5.80;99.90;;;;;;5091677;28;20421;-48
2023/11/22 06:54:46;;;;;;;1.20;0.63;;;6.10;99.90;;;;;;5093331;28;20429;-54
2023/11/22 06:57:13;;;;;;;1.20;0.70;;;6.30;99.90;;;;;;5092934;28;20429;-49
2023/11/22 06:59:42;;;;;;;1.20;0.60;;;6.10;99.90;;;;;;5093333;28;20524;-51
2023/11/22 07:02:09;;;;;;;1.20;0.60;;;5.90;99.90;;;;;;5093604;28;20530;-50
2023/11/22 07:04:37;;;;;;;1.20;0.52;;;6.10;99.90;;;;;;5093920;28;20929;-52
2023/11/22 07:07:04;;;;;;;1.20;0.60;;;6.10;99.90;;;;;;5093191;28;20520;-49
2023/11/22 07:09:32;;;;;;;1.00;0.60;;;6.20;99.90;;;;;;5094222;28;20466;-54
2023/11/22 07:11:59;;;;;;;0.90;0.60;;;6.10;99.90;;;;;;5093228;28;20500;-54
2023/11/22 07:14:26;;;;;;;2.45;0.60;;;6.00;99.90;;;;;;5092412;28;20426;-54
2023/11/22 07:16:57;;;;;;;0.80;0.50;;;6.20;99.90;;;;;;5093412;28;20425;-53
2023/11/22 07:19:24;;;;;;;0.80;0.50;;;6.00;99.90;;;;;;5093296;28;20622;-55
2023/11/22 07:21:51;;;;;;;0.70;0.50;;;5.80;99.90;;;;;;5092777;28;20422;-53
2023/11/22 07:24:18;;;;;;;1.00;0.50;;;5.70;99.90;;;;;;5090534;28;20432;-55
2023/11/22 07:26:46;;;;;;;0.90;0.50;;;5.90;99.90;;;;;;5091969;28;20437;-55
2023/11/22 07:29:13;;;;;;;0.90;0.50;;;5.90;99.90;;;;;;5093143;28;20500;-55
2023/11/22 07:31:42;;;;;;;1.70;0.50;;;5.70;99.90;;;;;;5092955;28;20433;-54
2023/11/22 07:34:11;;;;;;;1.40;0.50;;;5.50;99.90;;;;;;5092769;28;20442;-51
2023/11/22 07:36:40;;;;;;;1.40;0.60;;;5.30;99.90;;;;;;5092607;28;20900;-53
2023/11/22 07:39:07;;;;;;;1.08;0.50;;;5.30;99.90;;;;;;5089398;28;20442;-52
2023/11/22 07:41:34;;;;;;;1.50;0.50;;;5.30;99.90;;;;;;5090342;28;20453;-53
2023/11/22 07:44:02;;;;;;;0.98;0.50;;;5.30;99.90;;;;;;5084432;28;20848;-55
2023/11/22 07:46:29;;;;;;;2.70;0.60;;;5.30;99.90;;;;;;5091725;28;21010;-53
2023/11/22 07:48:56;;;;;;;0.80;0.50;;;5.30;99.90;;;;;;5094499;28;20837;-52
2023/11/22 07:51:27;;;;;;;0.80;0.50;;;5.20;99.90;;;;;;5093373;28;20433;-52
2023/11/22 07:53:55;;;;;;;1.20;0.50;;;5.10;99.90;;;;;;5088240;28;20819;-52
2023/11/22 07:56:22;;;;;;;0.80;0.50;;;5.00;99.90;;;;;;5091209;28;20425;-52
2023/11/22 07:58:49;;;;;;;2.13;0.50;;;5.00;99.90;;;;;;5091827;28;20866;-54
2023/11/22 08:01:18;;;;;;;0.90;0.50;;;5.10;99.90;;;;;;5091675;28;20868;-53
2023/11/22 08:03:45;;;;;;;0.80;0.50;;;5.20;99.90;;;;;;5092662;28;20465;-51
2023/11/22 08:06:12;;;;;;;0.80;0.50;;;5.10;99.90;;;;;;5094316;28;20428;-52
2023/11/22 08:08:41;;;;;;;1.00;0.50;;;5.20;99.90;;;;;;5090735;28;20430;-50
2023/11/22 08:11:14;;;;;;;1.00;0.50;;;5.10;99.90;;;;;;5092332;28;20429;-52
2023/11/22 08:13:42;;;;;;;1.60;0.50;;;5.10;99.90;;;;;;5083597;28;20819;-53
2023/11/22 08:16:10;;;;;;;1.05;0.50;;;4.90;99.90;;;;;;5091797;28;20787;-53
2023/11/22 08:18:37;;;;;;;1.30;0.50;;;4.90;99.90;;;;;;5090569;28;20593;-52
2023/11/22 08:21:04;;;;;;;1.20;0.50;;;4.90;99.90;;;;;;5086649;28;20501;-48
2023/11/22 08:23:32;;;;;;;0.90;0.50;;;5.00;99.90;;;;;;5081716;28;20542;-50
2023/11/22 08:26:00;;;;;;;0.98;0.50;;;5.00;99.90;;;;;;5087261;28;20516;-51
2023/11/22 08:28:28;;;;;;;0.70;0.40;;;4.90;99.90;;;;;;5080897;28;20899;-50
2023/11/22 08:30:56;;;;;;;1.00;0.47;;;4.80;99.90;;;;;;5090255;28;20442;-52
2023/11/22 08:33:23;;;;;;;1.10;0.50;;;4.80;99.90;;;;;;5089386;28;20528;-52
2023/11/22 08:35:58;;;;;;;1.13;0.60;;;5.00;99.90;;;;;;5091820;28;20440;-49
2023/11/22 08:38:25;;;;;;;1.20;0.50;;;5.00;99.90;;;;;;5091394;28;20652;-50
2023/11/22 08:40:52;;;;;;;1.80;0.60;;;5.20;99.90;;;;;;5089246;28;20856;-52
2023/11/22 08:43:22;;;;;;;0.70;0.50;;;5.20;99.90;;;;;;5089464;28;20599;-51
2023/11/22 08:45:49;;;;;;;0.90;0.50;;;4.90;99.90;;;;;;5090264;28;20425;-54
2023/11/22 08:48:16;;;;;;;0.90;0.60;;;4.90;99.90;;;;;;5092002;28;20444;-52
2023/11/22 08:50:44;;;;;;;1.57;0.60;;;5.00;99.90;;;;;;5091439;28;20579;-51
2023/11/22 08:53:12;;;;;;;1.30;0.50;;;4.80;99.90;;;;;;5089578;28;20756;-53
2023/11/22 08:55:40;;;;;;;1.00;0.50;;;5.00;99.90;;;;;;5090012;28;20433;-53
2023/11/22 08:58:08;;;;;;;1.98;0.50;;;5.00;99.90;;;;;;5090077;28;20511;-52
2023/11/22 09:00:36;;;;;;;0.93;0.70;;;5.00;99.90;;;;;;5090986;28;20513;-53
2023/11/22 09:03:03;;;;;;;1.30;0.50;;;5.00;99.90;;;;;;5090593;28;20442;-52
2023/11/22 09:05:30;;;;;;;1.10;0.60;;;5.00;99.90;;;;;;5090810;28;20679;-50
2023/11/22 09:07:58;;;;;;;1.00;0.60;;;5.00;99.90;;;;;;5086996;28;20441;-50
2023/11/22 09:10:26;;;;;;;1.40;0.50;;;5.00;99.90;;;;;;5089064;28;20446;-52
2023/11/22 09:12:53;;;;;;;2.00;0.68;;;5.00;99.90;;;;;;5091451;28;20438;-50
2023/11/22 09:15:26;;;;;;;1.15;0.60;;;5.00;99.90;;;;;;5090222;28;20503;-51
2023/11/22 09:17:56;;;;;;;2.88;0.80;;;4.90;99.90;;;;;;5091481;28;20807;-49
2023/11/22 09:20:23;;;;;;;3.80;0.80;;;4.90;99.90;;;;;;5089959;28;20730;-52
2023/11/22 09:22:52;;;;;;;1.20;0.70;;;5.10;99.90;;;;;;5090653;28;20442;-48
2023/11/22 09:25:22;;;;;;;1.60;0.80;;;5.30;99.90;;;;;;5092244;28;20705;-53
2023/11/22 09:27:51;;;;;;;1.10;0.60;;;5.30;99.90;;;;;;5091153;28;20825;-52
2023/11/22 09:30:32;;;;;;;1.10;0.70;;;5.20;99.90;;;;;;5083662;28;20438;-50
2023/11/22 09:33:00;;;;;;;1.08;0.60;;;4.80;99.90;;;;;;5098437;28;20820;-48
2023/11/22 09:35:29;;;;;;;1.27;0.70;;;4.70;99.90;;;;;;5089576;28;20517;-50
2023/11/22 09:37:56;;;;;;;1.98;0.70;;;4.70;99.90;;;;;;5086599;28;20426;-52
2023/11/22 09:40:24;;;;;;;1.20;0.67;;;5.00;99.90;;;;;;5087390;28;20511;-49
2023/11/22 09:42:52;;;;;;;1.30;0.70;;;5.10;99.90;;;;;;5090674;28;20787;-50
2023/11/22 09:45:20;;;;;;;1.33;0.70;;;5.10;99.90;;;;;;5089374;28;20438;-50
2023/11/22 09:47:47;;;;;;;2.05;0.70;;;5.30;99.90;;;;;;5088089;28;20440;-49
2023/11/22 09:50:27;;;;;;;1.38;0.60;;;5.20;99.90;;;;;;5088037;28;20483;-52
2023/11/22 09:53:00;;;;;;;1.20;0.60;;;5.10;99.90;;;;;;5082931;28;20510;-46
2023/11/22 09:55:30;;;;;;;1.15;0.60;;;5.10;99.90;;;;;;5087980;28;20430;-52
2023/11/22 09:57:59;;;;;;;1.40;0.70;;;5.20;99.90;;;;;;5091539;28;20981;-51
2023/11/22 10:00:30;;;;;;;1.65;0.70;;;5.00;99.90;;;;;;5090045;28;20442;-49
2023/11/22 10:02:57;;;;;;;1.60;0.80;;;5.00;99.90;;;;;;5089368;28;20853;-52
2023/11/22 10:05:28;;;;;;;1.45;0.80;;;5.20;99.90;;;;;;5085292;28;20457;-51
2023/11/22 10:07:55;;;;;;;1.63;0.73;;;5.30;99.90;;;;;;5075438;28;20414;-50
2023/11/22 10:10:26;;;;;;;1.50;0.60;;;5.30;99.90;;;;;;5094142;28;20467;-48
2023/11/22 10:12:56;;;;;;;1.20;0.70;;;5.30;99.90;;;;;;5096307;28;20436;-48
2023/11/22 10:15:24;;;;;;;3.13;0.77;;;5.20;99.90;;;;;;5085438;28;20538;-52
2023/11/22 10:17:57;;;;;;;1.73;0.70;;;5.30;99.90;;;;;;5082997;28;20912;-51
2023/11/22 10:20:26;;;;;;;1.20;0.70;;;5.40;99.90;;;;;;5086356;28;20852;-50
2023/11/22 10:22:53;;;;;;;1.40;0.70;;;5.40;99.90;;;;;;5083147;28;20817;-49
2023/11/22 10:25:22;;;;;;;1.65;0.70;;;5.40;99.90;;;;;;5076900;28;20467;-50
2023/11/22 10:27:51;;;;;;;1.70;0.70;;;5.50;99.90;;;;;;5087376;28;20512;-49
2023/11/22 10:30:18;;;;;;;1.23;0.70;;;5.50;99.90;;;;;;5079411;28;20487;-52
2023/11/22 10:32:46;;;;;;;1.03;0.70;;;5.50;99.90;;;;;;5074056;28;20442;-49
2023/11/22 10:35:15;;;;;;;1.52;0.90;;;5.50;1.00;;;;;;5075508;28;20425;-49
2023/11/22 10:37:45;;;;;;;1.15;0.70;;;5.50;1.00;;;;;;5084976;28;20437;-49
2023/11/22 10:40:14;;;;;;;1.40;0.70;;;5.40;1.00;;;;;;5087968;28;20526;-49
2023/11/22 10:42:43;;;;;;;1.60;0.80;;;5.20;1.00;;;;;;5074266;28;20445;-50
2023/11/22 10:45:10;;;;;;;2.40;0.90;;;5.30;1.00;;;;;;5089059;28;20440;-53
2023/11/22 10:47:41;;;;;;;1.58;0.80;;;5.40;1.00;;;;;;5086954;28;20685;-52
2023/11/22 10:50:10;;;;;;;3.30;0.90;;;5.60;1.00;;;;;;5091262;28;20432;-53
2023/11/22 10:52:38;;;;;;;2.20;0.70;;;5.70;1.00;;;;;;5092443;28;20883;-57
2023/11/22 10:55:07;;;;;;;2.72;0.82;;;5.90;1.00;;;;;;5087281;28;20426;-56
2023/11/22 10:57:41;;;;;;;1.35;0.75;;;6.00;1.00;;;;;;5075905;28;20486;-55
2023/11/22 11:00:12;;;;;;;1.92;0.80;;;6.10;1.00;;;;;;5092455;28;21172;-56
2023/11/22 11:02:45;;;;;;;2.40;0.70;;;6.30;1.00;;;;;;5099461;28;20436;-56
2023/11/22 11:05:19;;;;;;;2.50;0.80;;;6.40;1.00;;;;;;5106809;28;20880;-56
2023/11/22 11:08:02;;;;;;;1.88;0.80;;;6.20;1.00;;;;;;5080181;28;20441;-53
2023/11/22 11:10:32;;;;;;;1.53;0.80;;;5.90;1.00;;;;;;5072044;28;20972;-54
2023/11/22 11:13:01;;;;;;;1.50;0.80;;;5.70;1.00;;;;;;5089514;28;20436;-53
2023/11/22 11:15:29;;;;;;;1.95;0.80;;;6.10;99.90;;;;;;5067841;28;20449;-53
2023/11/22 11:17:57;;;;;;;1.70;0.90;;;6.40;99.90;;;;;;5075585;28;20518;-55
2023/11/22 11:20:24;;;;;;;1.48;0.73;;;6.10;99.90;;;;;;5098875;28;20427;-54
2023/11/22 11:22:52;;;;;;;1.95;0.80;;;6.00;1.00;;;;;;5085132;28;20490;-52
2023/11/22 11:25:19;;;;;;;1.27;0.80;;;6.00;1.00;;;;;;5080149;28;20536;-55
2023/11/22 11:27:58;;;;;;;1.48;0.80;;;6.30;1.00;;;;;;5089711;28;20559;-53
2023/11/22 11:30:48;;;;;;;1.45;0.80;;;6.40;1.00;;;;;;5102880;28;20742;-53
2023/11/22 11:33:17;;;;;;;2.30;0.90;;;6.70;1.00;;;;;;5105772;28;20439;-49
2023/11/22 11:35:46;;;;;;;1.25;0.70;;;6.80;1.00;;;;;;5112545;28;20924;-55
2023/11/22 11:38:14;;;;;;;1.25;0.70;;;6.70;1.00;;;;;;5084170;28;20711;-53
2023/11/22 11:40:43;;;;;;;1.17;0.80;;;6.70;1.00;;;;;;5080065;28;20435;-53
2023/11/22 11:43:12;;;;;;;1.20;0.80;;;6.10;1.00;;;;;;5076683;28;20453;-55
2023/11/22 11:45:45;;;;;;;1.60;1.00;;;6.30;1.00;;;;;;5092147;28;20478;-54
2023/11/22 11:48:13;;;;;;;1.20;0.70;;;5.90;99.90;;;;;;5100127;28;20467;-55
2023/11/22 11:50:41;;;;;;;1.20;0.80;;;5.90;1.00;;;;;;5076022;28;20435;-50
2023/11/22 11:53:08;;;;;;;2.20;0.80;;;6.00;1.00;;;;;;5082977;28;20442;-51
2023/11/22 11:55:36;;;;;;;1.27;0.80;;;6.20;1.00;;;;;;5086135;28;20426;-53
2023/11/22 11:58:08;;;;;;;3.20;1.00;;;6.50;1.00;;;;;;5096608;28;20476;-52
2023/11/22 12:00:40;;;;;;;2.70;1.10;;;6.40;99.90;;;;;;5091247;28;20437;-53
2023/11/22 12:03:09;;;;;;;2.30;0.80;;;6.60;1.00;;;;;;5088355;28;20832;-56
2023/11/22 12:05:36;;;;;;;2.08;0.80;;;6.70;1.00;;;;;;5090740;28;20479;-54
2023/11/22 12:08:04;;;;;;;1.60;0.88;;;6.90;99.90;;;;;;5089736;28;20436;-55
2023/11/22 12:10:31;;;;;;;1.60;0.90;;;6.40;1.00;;;;;;5089177;28;20430;-54
2023/11/22 12:12:58;;;;;;;1.57;0.80;;;6.20;99.90;;;;;;5090379;28;21369;-52
2023/11/22 12:15:26;;;;;;;1.20;0.70;;;6.10;99.90;;;;;;5100392;28;20473;-55
2023/11/22 12:17:56;;;;;;;1.60;0.90;;;6.00;99.90;;;;;;5095070;28;20888;-53
2023/11/22 12:20:26;;;;;;;1.48;0.80;;;5.80;99.90;;;;;;5090572;28;20434;-52
2023/11/22 12:22:53;;;;;;;2.13;0.80;;;5.70;1.00;;;;;;5100369;28;20438;-54
2023/11/22 12:25:21;;;;;;;2.20;1.00;;;5.30;1.00;;;;;;5092980;28;20464;-53
2023/11/22 12:27:48;;;;;;;2.10;1.00;;;5.20;1.00;;;;;;5092857;28;20440;-55
2023/11/22 12:30:32;;;;;;;1.97;0.90;;;4.90;1.00;;;;;;5090737;28;20444;-53
2023/11/22 12:33:03;;;;;;;2.03;0.90;;;4.70;1.00;;;;;;5086401;28;20438;-53
2023/11/22 12:35:31;;;;;;;2.15;0.90;;;4.80;1.00;;;;;;5089750;28;20521;-55
2023/11/22 12:38:00;;;;;;;1.65;0.90;;;4.90;99.90;;;;;;5085887;28;20436;-55
2023/11/22 12:40:32;;;;;;;1.60;0.80;;;5.00;1.00;;;;;;5087448;28;20442;-52
2023/11/22 12:43:00;;;;;;;1.80;0.85;;;5.00;99.90;;;;;;5090289;28;20673;-52
2023/11/22 12:45:29;;;;;;;1.95;0.82;;;5.10;99.90;;;;;;5088617;28;20536;-55
2023/11/22 12:47:58;;;;;;;1.60;0.80;;;5.10;1.00;;;;;;5087777;28;20487;-56
2023/11/22 12:50:35;;;;;;;1.38;0.80;;;5.10;99.90;;;;;;5088400;28;20879;-53
2023/11/22 12:53:11;;;;;;;1.60;0.80;;;5.00;99.90;;;;;;5089763;28;20778;-54
2023/11/22 12:55:40;;;;;;;1.40;0.80;;;5.00;99.90;;;;;;5100231;28;20460;-55
2023/11/22 12:58:08;;;;;;;1.10;0.80;;;5.10;99.90;;;;;;5091676;28;20441;-56
2023/11/22 13:00:35;;;;;;;1.60;0.80;;;5.10;99.90;;;;;;5092982;28;20741;-54
2023/11/22 13:03:03;;;;;;;2.22;0.90;;;5.10;1.00;;;;;;5092486;28;20444;-55